Portada
METAR-TAF:

METAR-TAF

Aeroports :

Merrill Municipal Airport

Merrill, Wisconsin, Estats Units d'Amèrica

latitud: 45-11N, longitud: 089-42W, altitud: 401 m

Observació

L'informe es va fer fa 11 minuts, a les 07:35 UTC
Vent 12 kt del Nord amb ràfegues de 17 kt
Temperatura 2°C
Humitat 93%
Pressió 1015 hPa
Visibilitat: 16.1 km
Cel ennuvolat a una alçada de 1500 ft
Cel cobert a una alçada de 3500 ft

METAR: KRRL 300735Z AUTO 35012G17KT 10SM BKN015 OVC035 02/01 A2996 RMK AO2 T00220005 TSNO

Hora: 02:46 (07:46 UTC)


TAF: manca

Observacions i pronòstics meteorològics de més de 4000 aeroports (METAR i TAF).

Les estacions disponibles són els punts grocs i vermells al mapa.

Posi el ratolí al punt desitjat per veure el nom de l'estació.

Feu clic per veure les observacions i els pronòstics meteorològics.

Per canviar el mapa: feu clic els botons verds amb una creu de color negre per apropar; al botó verd amb un guió per allunyar la imatge; o en les fletxes verdes per a mapes adjacents.


METAR-TAF: